Time;durP1;ratioP1;P1;durP2;ratioP2;P2;SDS_P1;SDS_P2;PMS_P1;PMS_P2;Temp;Humidity;BMP_temperature;BMP_pressure;BME280_temperature;BME280_humidity;BME280_pressure;Samples;Min_cycle;Max_cycle;Signal;HPM_P1;HPM_P2
2022/11/11 00:00:49;;;;;;;;;;;12.60;83.90;;;;;;4996956;28;20303;-46
2022/11/11 00:03:18;;;;;;;;;;;12.60;84.00;;;;;;4996563;28;20247;-46
2022/11/11 00:05:43;;;;;;;;;;;12.60;84.00;;;;;;4996849;28;19910;-46
2022/11/11 00:08:10;;;;;;;;;;;12.60;84.10;;;;;;4996778;28;19910;-46
2022/11/11 00:10:37;;;;;;;;;;;12.50;84.00;;;;;;4996792;28;19964;-46
2022/11/11 00:13:05;;;;;;;;;;;12.60;84.20;;;;;;5011383;28;19913;-46
2022/11/11 00:15:35;;;;;;;;;;;12.50;84.30;;;;;;5022853;28;19910;-47
2022/11/11 00:26:21;;;;;;;;;;;12.50;84.40;;;;;;4996492;28;19916;-46
2022/11/11 00:28:47;;;;;;;;;;;12.50;84.20;;;;;;5014760;28;19910;-47
2022/11/11 00:31:16;;;;;;;;;;;12.40;84.40;;;;;;5015113;28;20274;-46
2022/11/11 00:33:41;;;;;;;;;;;12.50;84.10;;;;;;4999361;28;19916;-47
2022/11/11 00:36:08;;;;;;;;;;;12.40;84.30;;;;;;4996334;28;19909;-46
2022/11/11 00:38:48;;;;;;;;;;;12.40;84.40;;;;;;4996431;28;19910;-46
2022/11/11 00:41:17;;;;;;;;;;;12.40;84.30;;;;;;4996531;28;19919;-46
2022/11/11 00:43:44;;;;;;;;;;;12.40;84.50;;;;;;5015598;28;19906;-47
2022/11/11 00:51:39;;;;;;;;;;;12.40;84.70;;;;;;4996148;28;20255;-48
2022/11/11 00:54:05;;;;;;;;;;;12.30;84.90;;;;;;4996418;28;19909;-46
2022/11/11 00:56:30;;;;;;;;;;;12.40;84.90;;;;;;4999277;28;20254;-47
2022/11/11 00:58:56;;;;;;;;;;;12.30;84.90;;;;;;5014833;28;20000;-46
2022/11/11 01:01:21;;;;;;;;;;;12.30;85.00;;;;;;5010370;28;20040;-46
2022/11/11 01:03:49;;;;;;;;;;;12.30;85.10;;;;;;4995913;28;19909;-49
2022/11/11 01:06:14;;;;;;;;;;;12.30;85.20;;;;;;4995711;28;19913;-48
2022/11/11 01:08:41;;;;;;;;;;;12.30;85.20;;;;;;5005780;28;20283;-50
2022/11/11 01:11:15;;;;;;;;;;;12.30;85.30;;;;;;4994601;28;20267;-49
2022/11/11 01:13:42;;;;;;;;;;;12.30;85.50;;;;;;4992876;28;19921;-47
2022/11/11 01:16:11;;;;;;;;;;;12.30;85.50;;;;;;4996995;28;19928;-46
2022/11/11 01:18:38;;;;;;;;;;;12.30;85.20;;;;;;4997105;28;19968;-47
2022/11/11 01:21:09;;;;;;;;;;;12.30;85.30;;;;;;5000670;28;19957;-46
2022/11/11 01:23:37;;;;;;;;;;;12.30;85.50;;;;;;4994677;28;19925;-47
2022/11/11 01:26:14;;;;;;;;;;;12.20;85.50;;;;;;4995241;28;19945;-48
2022/11/11 01:28:40;;;;;;;;;;;12.20;85.70;;;;;;5008020;28;20232;-46
2022/11/11 01:31:07;;;;;;;;;;;12.20;85.70;;;;;;4995310;28;19919;-46
2022/11/11 01:33:34;;;;;;;;;;;12.20;85.70;;;;;;5009571;28;19919;-48
2022/11/11 01:36:05;;;;;;;;;;;12.20;85.60;;;;;;4995281;28;19910;-46
2022/11/11 01:38:32;;;;;;;;;;;12.10;85.80;;;;;;4995268;28;19905;-48
2022/11/11 01:40:59;;;;;;;;;;;12.20;85.90;;;;;;4994827;28;20528;-46
2022/11/11 01:43:25;;;;;;;;;;;12.20;85.80;;;;;;5011770;28;20342;-47
2022/11/11 01:45:50;;;;;;;;;;;12.20;85.80;;;;;;5010150;28;19972;-47
2022/11/11 01:51:09;;;;;;;;;;;12.20;85.80;;;;;;4994271;28;19988;-47
2022/11/11 01:53:35;;;;;;;;;;;12.20;85.80;;;;;;4994263;28;19925;-46
2022/11/11 01:56:05;;;;;;;;;;;12.10;85.80;;;;;;4994542;28;19921;-46
2022/11/11 01:58:32;;;;;;;;;;;12.10;85.90;;;;;;5010518;28;19993;-46
2022/11/11 02:00:58;;;;;;;;;;;12.10;86.10;;;;;;5013379;28;19909;-46
2022/11/11 02:03:27;;;;;;;;;;;12.10;86.00;;;;;;4998080;28;19913;-46
2022/11/11 02:05:56;;;;;;;;;;;12.10;86.10;;;;;;4993621;28;19918;-47
2022/11/11 02:08:33;;;;;;;;;;;12.10;86.20;;;;;;4995484;28;20264;-46
2022/11/11 02:11:04;;;;;;;;;;;12.10;86.20;;;;;;4995764;28;20614;-46
2022/11/11 02:16:21;;;;;;;;;;;12.10;86.30;;;;;;5014237;28;19931;-46
2022/11/11 02:18:48;;;;;;;;;;;12.10;86.50;;;;;;5010271;28;19917;-48
2022/11/11 02:21:22;;;;;;;;;;;12.10;86.50;;;;;;4996596;28;19913;-48
2022/11/11 02:23:54;;;;;;;;;;;12.10;86.60;;;;;;5014004;28;19909;-48
2022/11/11 02:26:21;;;;;;;;;;;12.10;86.60;;;;;;4999796;28;20560;-47
2022/11/11 02:28:48;;;;;;;;;;;12.10;86.40;;;;;;5013334;28;20378;-46
2022/11/11 02:31:13;;;;;;;;;;;12.20;86.30;;;;;;5001748;28;19914;-46
2022/11/11 02:33:39;;;;;;;;;;;12.10;86.20;;;;;;5008598;28;19909;-47
2022/11/11 02:36:09;;;;;;;;;;;12.20;86.20;;;;;;4995971;28;19940;-46
2022/11/11 02:38:40;;;;;;;;;;;12.10;86.10;;;;;;4993619;28;19921;-46
2022/11/11 02:43:52;;;;;;;;;;;12.10;86.10;;;;;;5010776;28;20004;-46
2022/11/11 02:46:19;;;;;;;;;;;12.10;86.20;;;;;;5010603;28;20001;-46
2022/11/11 02:48:45;;;;;;;;;;;12.10;86.30;;;;;;4994066;28;20354;-45
2022/11/11 02:51:14;;;;;;;;;;;12.10;86.40;;;;;;4994002;28;19921;-45
2022/11/11 02:53:40;;;;;;;;;;;12.10;86.50;;;;;;4994090;28;19905;-45
2022/11/11 02:56:06;;;;;;;;;;;12.10;86.40;;;;;;4994418;28;19979;-46
2022/11/11 02:58:32;;;;;;;;;;;12.00;86.50;;;;;;5013755;28;19906;-45
2022/11/11 03:00:58;;;;;;;;;;;12.00;86.50;;;;;;5008935;28;19960;-47
2022/11/11 03:03:23;;;;;;;;;;;12.00;86.60;;;;;;4993087;28;20272;-46
2022/11/11 03:05:50;;;;;;;;;;;12.00;86.60;;;;;;4994074;28;19945;-46
2022/11/11 03:08:16;;;;;;;;;;;12.00;86.80;;;;;;4993920;28;19963;-46
2022/11/11 03:10:42;;;;;;;;;;;12.00;86.90;;;;;;4996139;28;19905;-50
2022/11/11 03:13:08;;;;;;;;;;;12.00;86.70;;;;;;5016238;28;19967;-46
2022/11/11 03:15:33;;;;;;;;;;;12.00;86.80;;;;;;5017543;28;20379;-45
2022/11/11 03:18:00;;;;;;;;;;;12.00;86.70;;;;;;5010393;28;19925;-46
2022/11/11 03:23:11;;;;;;;;;;;12.00;86.90;;;;;;4997840;28;19944;-46
2022/11/11 03:25:38;;;;;;;;;;;11.90;87.00;;;;;;4996678;28;19918;-46
2022/11/11 03:28:11;;;;;;;;;;;11.90;87.00;;;;;;5015302;28;19909;-46
2022/11/11 03:30:38;;;;;;;;;;;11.90;87.10;;;;;;5012242;28;20433;-46
2022/11/11 03:33:05;;;;;;;;;;;11.90;87.10;;;;;;4997511;28;19910;-45
2022/11/11 03:35:30;;;;;;;;;;;11.90;87.00;;;;;;4997385;28;19928;-46
2022/11/11 03:38:22;;;;;;;;;;;11.90;87.20;;;;;;4997751;28;20608;-47
2022/11/11 03:40:49;;;;;;;;;;;11.90;87.20;;;;;;4997592;28;19919;-46
2022/11/11 03:43:19;;;;;;;;;;;11.90;87.20;;;;;;5016640;28;20390;-46
2022/11/11 03:45:46;;;;;;;;;;;11.90;87.20;;;;;;5016917;28;19909;-46
2022/11/11 03:48:15;;;;;;;;;;;11.90;87.30;;;;;;5009025;28;19910;-47
2022/11/11 03:50:41;;;;;;;;;;;11.90;87.30;;;;;;4996256;28;19953;-46
2022/11/11 03:53:08;;;;;;;;;;;11.90;87.40;;;;;;4997024;28;19909;-46
2022/11/11 03:55:33;;;;;;;;;;;11.90;87.50;;;;;;4997439;28;20004;-46
2022/11/11 03:58:00;;;;;;;;;;;11.90;87.50;;;;;;5016559;28;19909;-46
2022/11/11 04:00:29;;;;;;;;;;;11.90;87.50;;;;;;5003870;28;19906;-46
2022/11/11 04:11:27;;;;;;;;;;;11.90;87.40;;;;;;5011980;28;20243;-48
2022/11/11 04:16:41;;;;;;;;;;;11.90;87.60;;;;;;5014069;28;19936;-46
2022/11/11 04:21:58;;;;;;;;;;;11.90;87.70;;;;;;4996584;28;19920;-46
2022/11/11 04:27:09;;;;;;;;;;;11.80;87.60;;;;;;5007107;28;19959;-45
2022/11/11 04:29:35;;;;;;;;;;;11.80;87.70;;;;;;5014532;28;19918;-46
2022/11/11 04:32:35;;;;;;;;;;;11.80;87.60;;;;;;5008786;28;19905;-46
2022/11/11 04:35:03;;;;;;;;;;;11.80;87.70;;;;;;4996383;28;20382;-46
2022/11/11 04:37:31;;;;;;;;;;;11.70;87.80;;;;;;5005674;28;19952;-46
2022/11/11 04:42:43;;;;;;;;;;;11.70;87.80;;;;;;5015861;28;20009;-46
2022/11/11 04:45:31;;;;;;;;;;;11.70;87.90;;;;;;5015779;28;19962;-46
2022/11/11 04:48:02;;;;;;;;;;;11.60;87.90;;;;;;4994704;28;19945;-47
2022/11/11 04:50:34;;;;;;;;;;;11.60;88.00;;;;;;4996330;28;20270;-46
2022/11/11 04:53:00;;;;;;;;;;;11.60;88.00;;;;;;4996157;28;19909;-45
2022/11/11 04:58:13;;;;;;;;;;;11.60;87.90;;;;;;5008996;28;20000;-49
2022/11/11 05:00:39;;;;;;;;;;;11.60;88.10;;;;;;5006739;28;19905;-47
2022/11/11 05:03:17;;;;;;;;;;;11.60;88.10;;;;;;5012302;28;19924;-46
2022/11/11 05:11:18;;;;;;;;;;;11.60;88.40;;;;;;5011124;28;19972;-46
2022/11/11 05:22:08;;;;;;;;;;;11.50;88.50;;;;;;4995675;28;19923;-45
2022/11/11 05:27:20;;;;;;;;;;;11.50;88.40;;;;;;5011000;28;20543;-47
2022/11/11 05:29:47;;;;;;;;;;;11.50;88.40;;;;;;5014293;28;19918;-45
2022/11/11 05:32:21;;;;;;;;;;;11.50;88.40;;;;;;5010515;28;19996;-45
2022/11/11 05:34:47;;;;;;;;;;;11.50;88.50;;;;;;5014726;28;20254;-45
2022/11/11 05:37:14;;;;;;;;;;;11.50;88.50;;;;;;5009183;28;19913;-46
2022/11/11 05:39:39;;;;;;;;;;;11.40;88.60;;;;;;5010470;28;20004;-46
2022/11/11 05:42:05;;;;;;;;;;;11.40;88.70;;;;;;5013223;28;20410;-46
2022/11/11 05:44:31;;;;;;;;;;;11.40;88.80;;;;;;5008803;28;20339;-46
2022/11/11 05:46:57;;;;;;;;;;;11.40;88.80;;;;;;4998794;28;19959;-46
2022/11/11 05:49:24;;;;;;;;;;;11.40;88.70;;;;;;5010081;28;19929;-49
2022/11/11 05:51:52;;;;;;;;;;;11.40;88.80;;;;;;5014312;28;20346;-45
2022/11/11 05:54:25;;;;;;;;;;;11.40;88.80;;;;;;5014039;28;20024;-46
2022/11/11 05:56:51;;;;;;;;;;;11.40;88.80;;;;;;5010968;28;19914;-46
2022/11/11 05:59:18;;;;;;;;;;;11.40;88.80;;;;;;5014371;28;19917;-45
2022/11/11 06:01:45;;;;;;;;;;;11.50;88.60;;;;;;5010655;28;19924;-49
2022/11/11 06:04:12;;;;;;;;;;;11.40;88.50;;;;;;5014743;28;19920;-45
2022/11/11 06:06:38;;;;;;;;;;;11.40;88.60;;;;;;5012269;28;19914;-46
2022/11/11 06:09:06;;;;;;;;;;;11.40;88.80;;;;;;5012415;28;19910;-46
2022/11/11 06:11:34;;;;;;;;;;;11.40;88.70;;;;;;5005603;28;20048;-45
2022/11/11 06:14:01;;;;;;;;;;;11.50;88.70;;;;;;5011873;28;19956;-46
2022/11/11 06:16:28;;;;;;;;;;;11.40;88.80;;;;;;5010866;28;20255;-45
2022/11/11 06:18:55;;;;;;;;;;;11.40;88.80;;;;;;5013672;28;19921;-51
2022/11/11 06:21:21;;;;;;;;;;;11.40;88.90;;;;;;5013750;28;20271;-46
2022/11/11 06:23:46;;;;;;;;;;;11.40;88.90;;;;;;4997882;28;20000;-45
2022/11/11 06:26:14;;;;;;;;;;;11.40;89.00;;;;;;5012244;28;20012;-46
2022/11/11 06:28:47;;;;;;;;;;;11.40;89.00;;;;;;5012159;28;20445;-48
2022/11/11 06:31:16;;;;;;;;;;;11.40;88.90;;;;;;5005302;28;19917;-49
2022/11/11 06:33:41;;;;;;;;;;;11.40;88.90;;;;;;5011461;28;19952;-46
2022/11/11 06:36:08;;;;;;;;;;;11.50;88.80;;;;;;5013396;28;20373;-47
2022/11/11 06:38:33;;;;;;;;;;;11.50;88.70;;;;;;5009866;28;19914;-47
2022/11/11 06:40:59;;;;;;;;;;;11.50;88.90;;;;;;5009087;28;20016;-46
2022/11/11 06:43:26;;;;;;;;;;;11.40;88.90;;;;;;5011387;28;19913;-45
2022/11/11 06:45:52;;;;;;;;;;;11.40;89.00;;;;;;5010764;28;19917;-47
2022/11/11 06:48:18;;;;;;;;;;;11.40;88.90;;;;;;5013006;28;20472;-47
2022/11/11 06:50:45;;;;;;;;;;;11.40;89.10;;;;;;4995730;28;20079;-47
2022/11/11 06:53:15;;;;;;;;;;;11.50;89.10;;;;;;5011302;28;20000;-48
2022/11/11 06:55:41;;;;;;;;;;;11.40;89.00;;;;;;5011177;28;19917;-47
2022/11/11 06:58:08;;;;;;;;;;;11.40;89.00;;;;;;5013018;28;19924;-47
2022/11/11 07:00:34;;;;;;;;;;;11.50;88.90;;;;;;5011081;28;19925;-46
2022/11/11 07:03:03;;;;;;;;;;;11.50;89.00;;;;;;5001758;28;20031;-46
2022/11/11 07:05:29;;;;;;;;;;;11.50;89.10;;;;;;5009714;28;19921;-48
2022/11/11 07:07:55;;;;;;;;;;;11.50;89.10;;;;;;5012783;28;20338;-45
2022/11/11 07:10:20;;;;;;;;;;;11.40;89.20;;;;;;5012080;28;19920;-49
2022/11/11 07:12:46;;;;;;;;;;;11.50;89.20;;;;;;5012901;28;20255;-49
2022/11/11 07:15:12;;;;;;;;;;;11.50;89.20;;;;;;5005601;28;20435;-46
2022/11/11 07:17:37;;;;;;;;;;;11.50;89.10;;;;;;5001251;28;19917;-47
2022/11/11 07:20:04;;;;;;;;;;;11.50;89.20;;;;;;5011388;28;19921;-45
2022/11/11 07:22:30;;;;;;;;;;;11.50;89.20;;;;;;5012044;28;19913;-47
2022/11/11 07:24:56;;;;;;;;;;;11.50;89.30;;;;;;5009407;28;19909;-45
2022/11/11 07:27:22;;;;;;;;;;;11.60;89.30;;;;;;5011731;28;19928;-46
2022/11/11 07:29:48;;;;;;;;;;;11.60;89.40;;;;;;5012935;28;19992;-45
2022/11/11 07:32:16;;;;;;;;;;;11.60;89.40;;;;;;5008603;28;20087;-46
2022/11/11 07:34:43;;;;;;;;;;;11.70;89.40;;;;;;4993418;28;20327;-46
2022/11/11 07:37:10;;;;;;;;;;;11.70;89.20;;;;;;4993667;28;20279;-46
2022/11/11 07:39:38;;;;;;;;;;;11.80;89.00;;;;;;5009788;28;19917;-46
2022/11/11 07:42:04;;;;;;;;;;;11.80;89.00;;;;;;5010700;28;19909;-45
2022/11/11 07:44:31;;;;;;;;;;;11.80;88.90;;;;;;5002111;28;20306;-48
2022/11/11 07:46:58;;;;;;;;;;;11.80;88.90;;;;;;5012388;28;19932;-47
2022/11/11 07:49:26;;;;;;;;;;;11.80;88.90;;;;;;5012209;28;19952;-47
2022/11/11 07:51:52;;;;;;;;;;;11.80;89.00;;;;;;5007807;28;19910;-48
2022/11/11 07:54:18;;;;;;;;;;;11.80;89.00;;;;;;5007210;28;19910;-46
2022/11/11 07:56:45;;;;;;;;;;;11.80;89.00;;;;;;5014502;28;20389;-49
2022/11/11 07:59:10;;;;;;;;;;;11.80;89.00;;;;;;5011163;28;19921;-46
2022/11/11 08:01:36;;;;;;;;;;;11.80;88.90;;;;;;5012817;28;19925;-46
2022/11/11 08:04:03;;;;;;;;;;;11.80;89.00;;;;;;5010300;28;19913;-46
2022/11/11 08:06:30;;;;;;;;;;;11.80;89.00;;;;;;5014697;28;19975;-47
2022/11/11 08:08:58;;;;;;;;;;;11.80;89.00;;;;;;5015967;28;19909;-47
2022/11/11 08:14:08;;;;;;;;;;;11.90;88.80;;;;;;5013632;28;19919;-46
2022/11/11 08:16:33;;;;;;;;;;;11.90;88.80;;;;;;5027932;28;19914;-45
2022/11/11 08:19:00;;;;;;;;;;;11.90;88.90;;;;;;5004156;28;20266;-46
2022/11/11 08:21:30;;;;;;;;;;;11.90;88.80;;;;;;5014796;28;19931;-48
2022/11/11 08:23:55;;;;;;;;;;;11.90;88.90;;;;;;5013751;28;19968;-49
2022/11/11 08:26:22;;;;;;;;;;;11.90;88.80;;;;;;5014234;28;20294;-51
2022/11/11 08:28:51;;;;;;;;;;;11.90;88.80;;;;;;5014666;28;19914;-46
2022/11/11 08:31:18;;;;;;;;;;;11.90;88.80;;;;;;5010053;28;19929;-46
2022/11/11 08:33:46;;;;;;;;;;;11.90;88.70;;;;;;4997611;28;19925;-46
2022/11/11 08:36:12;;;;;;;;;;;11.90;88.70;;;;;;5012444;28;20283;-47
2022/11/11 08:38:39;;;;;;;;;;;12.00;88.70;;;;;;5014308;28;20012;-46
2022/11/11 08:41:08;;;;;;;;;;;12.00;88.70;;;;;;5012756;28;19913;-47
2022/11/11 08:43:35;;;;;;;;;;;12.00;88.70;;;;;;4996476;28;19997;-46
2022/11/11 08:46:02;;;;;;;;;;;12.00;88.60;;;;;;5015012;28;19906;-47
2022/11/11 08:48:29;;;;;;;;;;;12.00;88.50;;;;;;5006261;28;19913;-46
2022/11/11 08:50:56;;;;;;;;;;;11.90;88.60;;;;;;5013920;28;19956;-47
2022/11/11 08:53:23;;;;;;;;;;;12.00;88.60;;;;;;5014016;28;19963;-47
2022/11/11 08:55:48;;;;;;;;;;;12.00;88.50;;;;;;5012619;28;20367;-46
2022/11/11 08:58:14;;;;;;;;;;;11.90;88.60;;;;;;5013036;28;19988;-45
2022/11/11 09:00:41;;;;;;;;;;;12.00;88.70;;;;;;5004457;28;19967;-45
2022/11/11 09:03:11;;;;;;;;;;;12.00;88.70;;;;;;5002752;28;20389;-46
2022/11/11 09:05:40;;;;;;;;;;;12.00;88.60;;;;;;5000646;28;19917;-47
2022/11/11 09:08:06;;;;;;;;;;;12.00;88.50;;;;;;5007244;28;20039;-46
2022/11/11 09:10:34;;;;;;;;;;;12.00;88.50;;;;;;5005621;28;19909;-46
2022/11/11 09:13:02;;;;;;;;;;;12.00;88.50;;;;;;5014680;28;19916;-46
2022/11/11 09:15:29;;;;;;;;;;;12.00;88.40;;;;;;5011090;28;19944;-47
2022/11/11 09:17:56;;;;;;;;;;;12.00;88.40;;;;;;4994788;28;20598;-47
2022/11/11 09:20:23;;;;;;;;;;;12.00;88.30;;;;;;4994889;28;19918;-45
2022/11/11 09:22:51;;;;;;;;;;;12.00;88.20;;;;;;4994810;28;20004;-48
2022/11/11 09:25:19;;;;;;;;;;;12.10;88.20;;;;;;5004676;28;20350;-46
2022/11/11 09:27:55;;;;;;;;;;;12.10;88.00;;;;;;5014487;28;19909;-49
2022/11/11 09:30:24;;;;;;;;;;;12.20;87.80;;;;;;5014530;28;19936;-46
2022/11/11 09:32:51;;;;;;;;;;;12.20;88.00;;;;;;5009115;28;19914;-46
2022/11/11 09:35:19;;;;;;;;;;;12.20;87.70;;;;;;4994886;28;19906;-49
2022/11/11 09:37:54;;;;;;;;;;;12.20;87.70;;;;;;4993641;28;19920;-48
2022/11/11 09:40:22;;;;;;;;;;;12.30;87.80;;;;;;4999529;28;19917;-47
2022/11/11 09:43:08;;;;;;;;;;;12.30;87.50;;;;;;5013078;28;19968;-47
2022/11/11 09:45:49;;;;;;;;;;;12.40;87.40;;;;;;5013525;28;19913;-47
2022/11/11 09:48:21;;;;;;;;;;;12.40;87.20;;;;;;5013567;28;19909;-47
2022/11/11 09:50:53;;;;;;;;;;;12.40;87.10;;;;;;5008539;28;19913;-47
2022/11/11 09:53:27;;;;;;;;;;;12.40;86.90;;;;;;4992426;28;19921;-47
2022/11/11 09:56:05;;;;;;;;;;;12.40;86.80;;;;;;5011454;28;20040;-46
2022/11/11 09:58:33;;;;;;;;;;;12.40;86.90;;;;;;5012790;28;19909;-46
2022/11/11 10:01:05;;;;;;;;;;;12.40;86.80;;;;;;5013563;28;19919;-46
2022/11/11 10:03:32;;;;;;;;;;;12.40;86.80;;;;;;4992600;28;19941;-48
2022/11/11 10:06:16;;;;;;;;;;;12.40;87.00;;;;;;5009585;28;19921;-48
2022/11/11 10:08:46;;;;;;;;;;;12.50;86.60;;;;;;4997762;28;19910;-46
2022/11/11 10:11:19;;;;;;;;;;;12.50;86.50;;;;;;4994069;28;19913;-46
2022/11/11 10:13:48;;;;;;;;;;;12.50;86.70;;;;;;4993106;28;20378;-48
2022/11/11 10:16:27;;;;;;;;;;;12.50;86.70;;;;;;4993807;28;20004;-48
2022/11/11 10:19:07;;;;;;;;;;;12.50;86.90;;;;;;4993571;28;20395;-48
2022/11/11 10:21:39;;;;;;;;;;;12.50;86.80;;;;;;5002147;28;19937;-48
2022/11/11 10:24:10;;;;;;;;;;;12.50;86.80;;;;;;5002087;28;20000;-46
2022/11/11 10:26:39;;;;;;;;;;;12.50;86.60;;;;;;5011807;28;19909;-47
2022/11/11 10:29:13;;;;;;;;;;;12.50;86.60;;;;;;5000704;28;19913;-48
2022/11/11 10:31:41;;;;;;;;;;;12.50;86.70;;;;;;5011500;28;19924;-48
2022/11/11 10:34:16;;;;;;;;;;;12.50;86.60;;;;;;5013220;28;19996;-46
2022/11/11 10:36:52;;;;;;;;;;;12.50;86.70;;;;;;5003742;28;20004;-46
2022/11/11 10:39:28;;;;;;;;;;;12.50;86.60;;;;;;5010846;28;19909;-46
2022/11/11 10:41:53;;;;;;;;;;;12.50;86.50;;;;;;5007729;28;19917;-49
2022/11/11 10:44:19;;;;;;;;;;;12.40;86.80;;;;;;5008424;28;20236;-47
2022/11/11 10:47:04;;;;;;;;;;;12.50;86.60;;;;;;5013509;28;20028;-46
2022/11/11 10:49:34;;;;;;;;;;;12.50;86.60;;;;;;5012892;28;19910;-46
2022/11/11 10:52:11;;;;;;;;;;;12.50;86.50;;;;;;5006158;28;19953;-49
2022/11/11 10:54:44;;;;;;;;;;;12.50;86.70;;;;;;5009794;28;19909;-51
2022/11/11 10:57:29;;;;;;;;;;;12.50;86.90;;;;;;4992277;28;19995;-46
2022/11/11 11:00:09;;;;;;;;;;;12.40;86.70;;;;;;5001542;28;19913;-49
2022/11/11 11:02:52;;;;;;;;;;;12.40;86.80;;;;;;4992909;28;19917;-47
2022/11/11 11:05:20;;;;;;;;;;;12.50;86.60;;;;;;5007261;28;19909;-46
2022/11/11 11:07:48;;;;;;;;;;;12.50;86.40;;;;;;5012301;28;19910;-47
2022/11/11 11:10:17;;;;;;;;;;;12.60;86.10;;;;;;5008354;28;19924;-47
2022/11/11 11:13:13;;;;;;;;;;;12.60;86.10;;;;;;5009983;28;19909;-46
2022/11/11 11:15:43;;;;;;;;;;;12.70;85.90;;;;;;4998795;28;19913;-47
2022/11/11 11:18:15;;;;;;;;;;;12.70;86.00;;;;;;5005756;28;19921;-48
2022/11/11 11:20:58;;;;;;;;;;;12.80;85.60;;;;;;4993315;28;19928;-47
2022/11/11 11:23:44;;;;;;;;;;;12.80;85.40;;;;;;4991873;28;19913;-48
2022/11/11 11:26:11;;;;;;;;;;;12.80;85.50;;;;;;4996354;28;19914;-49
2022/11/11 11:28:55;;;;;;;;;;;12.80;85.30;;;;;;5012046;28;19914;-46
2022/11/11 11:31:41;;;;;;;;;;;12.80;85.60;;;;;;5007325;28;19913;-46
2022/11/11 11:34:07;;;;;;;;;;;12.90;85.50;;;;;;5013541;28;19910;-46
2022/11/11 11:36:33;;;;;;;;;;;12.80;85.30;;;;;;4998958;28;19996;-46
2022/11/11 11:38:59;;;;;;;;;;;12.90;85.50;;;;;;5015279;28;19923;-48
2022/11/11 11:41:42;;;;;;;;;;;12.90;85.20;;;;;;5014014;28;20007;-46
2022/11/11 11:44:26;;;;;;;;;;;12.80;85.00;;;;;;5013482;28;19909;-49
2022/11/11 11:47:13;;;;;;;;;;;12.90;84.90;;;;;;5005306;28;19963;-46
2022/11/11 11:50:15;;;;;;;;;;;12.70;84.90;;;;;;5002553;28;19975;-46
2022/11/11 11:52:50;;;;;;;;;;;12.80;85.20;;;;;;4927386;29;19911;-46
2022/11/11 11:55:34;;;;;;;;;;;12.80;85.10;;;;;;4999664;28;19937;-48
2022/11/11 11:58:18;;;;;;;;;;;12.70;85.10;;;;;;5013488;28;20539;-46
2022/11/11 12:00:58;;;;;;;;;;;12.80;85.50;;;;;;5008831;28;19914;-49
2022/11/11 12:03:49;;;;;;;;;;;12.80;85.00;;;;;;5014674;28;19909;-49
2022/11/11 12:06:36;;;;;;;;;;;12.70;84.90;;;;;;4984853;28;19920;-46
2022/11/11 12:09:21;;;;;;;;;;;12.70;85.40;;;;;;5011991;28;19909;-47
2022/11/11 12:12:08;;;;;;;;;;;12.70;85.50;;;;;;5011837;28;19988;-46
2022/11/11 12:14:47;;;;;;;;;;;12.70;85.60;;;;;;5013149;28;20381;-46
2022/11/11 12:17:31;;;;;;;;;;;12.70;86.00;;;;;;5013287;28;19967;-46
2022/11/11 12:20:18;;;;;;;;;;;12.70;86.10;;;;;;5011837;28;19921;-47
2022/11/11 12:22:50;;;;;;;;;;;12.70;86.20;;;;;;5014076;28;19932;-47
2022/11/11 12:25:38;;;;;;;;;;;12.70;86.30;;;;;;5013491;28;20319;-50
2022/11/11 12:28:22;;;;;;;;;;;12.80;86.10;;;;;;5012822;28;20004;-49
2022/11/11 12:30:56;;;;;;;;;;;12.80;86.10;;;;;;5014294;28;19917;-47
2022/11/11 12:33:47;;;;;;;;;;;12.80;85.80;;;;;;4999118;28;19956;-46
2022/11/11 12:36:12;;;;;;;;;;;12.80;85.60;;;;;;5009345;28;19917;-46
2022/11/11 12:38:41;;;;;;;;;;;12.90;85.00;;;;;;5013189;28;19931;-49
2022/11/11 12:41:25;;;;;;;;;;;12.90;84.40;;;;;;5012242;28;19910;-46
2022/11/11 12:44:03;;;;;;;;;;;12.90;84.20;;;;;;5014107;28;20298;-48
2022/11/11 12:46:47;;;;;;;;;;;12.90;84.40;;;;;;4994949;28;20334;-46
2022/11/11 12:49:43;;;;;;;;;;;12.90;84.30;;;;;;4994629;28;19941;-48
2022/11/11 12:52:28;;;;;;;;;;;12.90;84.60;;;;;;5011668;28;19933;-48
2022/11/11 12:55:13;;;;;;;;;;;12.90;85.00;;;;;;5009616;28;20004;-47
2022/11/11 12:57:51;;;;;;;;;;;13.00;84.70;;;;;;5010404;28;19979;-46
2022/11/11 13:00:21;;;;;;;;;;;12.90;84.40;;;;;;5028608;28;19913;-46
2022/11/11 13:02:56;;;;;;;;;;;12.90;84.40;;;;;;5014149;28;19933;-46
2022/11/11 13:05:41;;;;;;;;;;;12.90;84.80;;;;;;5009748;28;19920;-45
2022/11/11 13:08:25;;;;;;;;;;;12.90;85.30;;;;;;5000546;28;19905;-46
2022/11/11 13:10:51;;;;;;;;;;;12.90;85.40;;;;;;5007115;28;19921;-46
2022/11/11 13:13:21;;;;;;;;;;;12.90;85.70;;;;;;5011002;28;19922;-46
2022/11/11 13:15:48;;;;;;;;;;;12.90;85.70;;;;;;5012811;28;19920;-46
2022/11/11 13:18:20;;;;;;;;;;;12.90;85.60;;;;;;5013530;28;19909;-46
2022/11/11 13:20:51;;;;;;;;;;;12.90;85.60;;;;;;4996931;28;20271;-48
2022/11/11 13:23:17;;;;;;;;;;;13.00;85.40;;;;;;5014012;28;20029;-46
2022/11/11 13:25:49;;;;;;;;;;;12.90;85.50;;;;;;5009205;28;19910;-46
2022/11/11 13:28:19;;;;;;;;;;;12.90;85.50;;;;;;4997702;28;20524;-46
2022/11/11 13:31:09;;;;;;;;;;;12.90;85.70;;;;;;5012008;28;19916;-46
2022/11/11 13:33:53;;;;;;;;;;;12.90;85.70;;;;;;5009793;28;19968;-45
2022/11/11 13:36:32;;;;;;;;;;;12.90;85.60;;;;;;4996205;28;19928;-45
2022/11/11 13:38:59;;;;;;;;;;;12.80;85.50;;;;;;5004092;28;20271;-48
2022/11/11 13:41:28;;;;;;;;;;;12.70;85.40;;;;;;5011890;28;19924;-46
2022/11/11 13:43:57;;;;;;;;;;;12.70;85.50;;;;;;4998993;28;19913;-46
2022/11/11 13:46:41;;;;;;;;;;;12.70;85.80;;;;;;4993916;28;19910;-46
2022/11/11 13:49:08;;;;;;;;;;;12.70;86.20;;;;;;4994235;28;19910;-46
2022/11/11 13:51:42;;;;;;;;;;;12.80;85.90;;;;;;4994686;28;20043;-45
2022/11/11 13:54:28;;;;;;;;;;;12.70;85.80;;;;;;4993063;28;20278;-46
2022/11/11 13:57:00;;;;;;;;;;;12.70;85.60;;;;;;5003419;28;19952;-46
2022/11/11 13:59:41;;;;;;;;;;;12.60;85.60;;;;;;4993474;28;19914;-46
2022/11/11 14:02:22;;;;;;;;;;;12.60;85.40;;;;;;5005385;28;19917;-47
2022/11/11 14:05:10;;;;;;;;;;;12.60;85.60;;;;;;5013707;28;19988;-45
2022/11/11 14:07:48;;;;;;;;;;;12.50;85.80;;;;;;5006493;28;19909;-47
2022/11/11 14:10:20;;;;;;;;;;;12.50;85.90;;;;;;5011675;28;19948;-46
2022/11/11 14:12:50;;;;;;;;;;;12.50;85.40;;;;;;5001133;28;20287;-45
2022/11/11 14:15:34;;;;;;;;;;;12.50;85.30;;;;;;4999728;28;19921;-46
2022/11/11 14:18:02;;;;;;;;;;;12.50;85.30;;;;;;5008408;28;19953;-46
2022/11/11 14:20:35;;;;;;;;;;;12.50;85.40;;;;;;5007647;28;19917;-46
2022/11/11 14:23:24;;;;;;;;;;;12.50;85.80;;;;;;5010321;28;19915;-46
2022/11/11 14:26:11;;;;;;;;;;;12.40;86.10;;;;;;5005682;28;20036;-47
2022/11/11 14:28:56;;;;;;;;;;;12.40;86.30;;;;;;5000370;28;19906;-45
2022/11/11 14:31:22;;;;;;;;;;;12.40;86.60;;;;;;5002272;28;19913;-48
2022/11/11 14:34:08;;;;;;;;;;;12.40;86.80;;;;;;5010230;28;20270;-45
2022/11/11 14:36:52;;;;;;;;;;;12.40;87.00;;;;;;4993976;28;19916;-46
2022/11/11 14:39:34;;;;;;;;;;;12.40;87.10;;;;;;5009081;28;19910;-46
2022/11/11 14:42:01;;;;;;;;;;;12.40;87.20;;;;;;5009913;28;20001;-46
2022/11/11 14:44:33;;;;;;;;;;;12.40;87.10;;;;;;5011684;28;20004;-47
2022/11/11 14:47:21;;;;;;;;;;;12.40;87.10;;;;;;5011645;28;19905;-46
2022/11/11 14:49:46;;;;;;;;;;;12.30;87.00;;;;;;4986499;28;19913;-45
2022/11/11 14:52:24;;;;;;;;;;;12.20;87.10;;;;;;4993992;28;19909;-46
2022/11/11 14:55:02;;;;;;;;;;;12.20;87.20;;;;;;4993777;28;19909;-46
2022/11/11 14:57:34;;;;;;;;;;;12.30;87.40;;;;;;5009548;28;19964;-48
2022/11/11 15:00:04;;;;;;;;;;;12.20;87.40;;;;;;4998741;28;19909;-45
2022/11/11 15:02:34;;;;;;;;;;;12.20;87.50;;;;;;4992297;28;19916;-46
2022/11/11 15:05:00;;;;;;;;;;;12.20;87.70;;;;;;4994751;28;20417;-46
2022/11/11 15:07:37;;;;;;;;;;;12.20;87.60;;;;;;4997596;28;19967;-46
2022/11/11 15:10:21;;;;;;;;;;;12.10;87.70;;;;;;4997719;28;19920;-45
2022/11/11 15:12:53;;;;;;;;;;;12.10;87.90;;;;;;5010441;28;20339;-47
2022/11/11 15:15:34;;;;;;;;;;;12.00;88.10;;;;;;5000004;28;20433;-45
2022/11/11 15:18:18;;;;;;;;;;;11.90;88.10;;;;;;5008700;28;20007;-45
2022/11/11 15:20:47;;;;;;;;;;;11.90;88.20;;;;;;5015669;28;19921;-45
2022/11/11 15:23:12;;;;;;;;;;;11.90;88.30;;;;;;5016431;28;20003;-46
2022/11/11 15:25:44;;;;;;;;;;;11.90;88.40;;;;;;5012806;28;20153;-49
2022/11/11 15:28:28;;;;;;;;;;;11.90;88.50;;;;;;5013714;28;19988;-46
2022/11/11 15:31:12;;;;;;;;;;;11.90;88.20;;;;;;5012214;28;19966;-47
2022/11/11 15:33:40;;;;;;;;;;;11.80;88.20;;;;;;5014813;28;19924;-46
2022/11/11 15:36:15;;;;;;;;;;;11.70;88.20;;;;;;5005391;28;19924;-46
2022/11/11 15:38:42;;;;;;;;;;;11.70;88.50;;;;;;5007020;28;20008;-46
2022/11/11 15:41:20;;;;;;;;;;;11.70;88.60;;;;;;5010346;28;19913;-46
2022/11/11 15:43:47;;;;;;;;;;;11.70;88.80;;;;;;4999614;28;19957;-46
2022/11/11 15:46:21;;;;;;;;;;;11.70;88.90;;;;;;5010868;28;19972;-46